This demonstration page uses our WeatherBlox Daily Observations layout. Learn more.

Left ArrowRight Arrow

Hourly Observations for May 31, 2020

Temp ( °F °C ) Dew Point ( °F °C ) Humidity (%) Winds ( mph kmh ) Pressure ( in mb ) Visibility ( mi km ) Precip ( " mm )
12:54 am 00:54 Cloudy 61 16.1 51 10.6 70 70 ESE 8 13 30.22 1023 10 16.0934 0 0
1:54 am 01:54 Cloudy 59 15 53 11.7 81 81 ESE 5 7 30.22 1023 10 16.0934 0.01 0.254
2:54 am 02:54 Cloudy 60 15.6 52 11.1 75 75 SE 7 11 30.21 1023 10 16.0934 0.001 0.001
3:54 am 03:54 Cloudy 60 15.6 52 11.1 75 75 E 6 9 30.2 1023 10 16.0934 0 0
4:54 am 04:54 Cloudy with Light Rain 60 15.6 53 11.7 78 78 ESE 6 9 30.2 1023 10 16.0934 0.001 0.001
5:54 am 05:54 Cloudy 59 15 53 11.7 81 81 SE 7 11 30.2 1023 10 16.0934 0.001 0.001
6:54 am 06:54 Cloudy 60 15.6 53 11.7 78 78 SE 8 13 30.2 1023 10 16.0934 0 0
7:54 am 07:54 Sunny 61 16.1 52 11.1 72 72 SSE 13 20 30.21 1023 10 16.0934 0 0
8:54 am 08:54 Partly Cloudy 63 17.2 53 11.7 70 70 SSE 14 22 30.22 1023 10 16.0934 0 0
9:54 am 09:54 Cloudy 67 19.4 54 12.2 63 63 SE 10 17 30.22 1023 10 16.0934 0 0
10:54 am 10:54 Mostly Sunny 70 21.1 54 12.2 57 57 SSE 17 28 30.19 1022 10 16.0934 0 0
11:54 am 11:54 Sunny 74 23.3 56 13.3 54 54 SE 17 28 30.17 1022 10 16.0934 0 0
12:54 pm 12:54 Sunny 77 25 57 13.9 50 50 SE 18 30 30.14 1021 10 16.0934 0 0
1:54 pm 13:54 Sunny 79 26.1 58 14.4 49 49 SE 20 31 30.11 1020 10 16.0934 0 0
2:54 pm 14:54 Sunny 82 27.8 58 14.4 44 44 SSE 22 35 30.08 1019 10 16.0934 0 0
3:54 pm 15:54 Sunny 84 28.9 58 14.4 41 41 SSE 24 39 30.06 1018 10 16.0934 0 0
4:54 pm 16:54 Sunny 84 28.9 58 14.4 41 41 SSE 28 44 30.03 1017 10 16.0934 0 0
5:54 pm 17:54 Sunny 81 27.2 59 15 47 47 S 21 33 30.01 1016 10 16.0934 0 0
6:54 pm 18:54 Sunny 79 26.1 59 15 50 50 SSE 21 33 30.01 1016 10 16.0934 0 0
7:54 pm 19:54 Sunny 77 25 58 14.4 52 52 S 14 22 30 1016 10 16.0934 0 0
8:54 pm 20:54 Clear 77 25 58 14.4 52 52 SSE 16 26 30.01 1016 10 16.0934 0 0
9:54 pm 21:54 Clear 75 23.9 59 15 58 58 SSE 12 19 30.01 1016 10 16.0934 0 0
10:54 pm 22:54 Clear 73 22.8 59 15 62 62 SSE 10 17 30.02 1017 10 16.0934 0 0
11:54 pm 23:54 Mostly Clear 74 23.3 58 14.4 57 57 S 15 24 30.01 1016 10 16.0934 0 0

Powered by AerisWeather